Time;durP1;ratioP1;P1;durP2;ratioP2;P2;SDS_P1;SDS_P2;PMS_P1;PMS_P2;Temp;Humidity;BMP_temperature;BMP_pressure;BME280_temperature;BME280_humidity;BME280_pressure;Samples;Min_cycle;Max_cycle;Signal;HPM_P1;HPM_P2
2023/04/21 00:00:25;;;;;;;;;;;;;;;-144.99;95.90;52331.91;5061493;28;19989;-71
2023/04/21 00:02:51;;;;;;;;;;;;;;;-144.99;96.05;52366.56;5051470;28;19963;-69
2023/04/21 00:05:20;;;;;;;;;;;;;;;-144.99;95.84;52342.09;5048493;28;21596;-70
2023/04/21 00:07:46;;;;;;;;;;;;;;;-144.99;95.48;52354.34;5052605;28;19933;-68
2023/04/21 00:10:13;;;;;;;;;;;;;;;-144.99;95.25;52366.56;5056056;28;19975;-70
2023/04/21 00:12:41;;;;;;;;;;;;;;;-144.99;95.08;52333.94;5051178;28;20029;-69
2023/04/21 00:15:08;;;;;;;;;;;;;;;-144.99;95.25;52358.41;5051290;28;20022;-72
2023/04/21 00:17:34;;;;;;;;;;;;;;;-144.99;95.42;52378.78;5052804;28;20223;-72
2023/04/21 00:20:01;;;;;;;;;;;;;;;-144.99;95.39;52354.34;5054921;28;19933;-74
2023/04/21 00:22:27;;;;;;;;;;;;;;;-144.99;95.39;52350.25;5060641;28;20370;-74
2023/04/21 00:24:54;;;;;;;;;;;;;;;-144.99;95.00;52366.56;5051357;28;19932;-70
2023/04/21 00:27:20;;;;;;;;;;;;;;;-144.99;95.37;52346.19;5062934;28;19932;-69
2023/04/21 00:29:48;;;;;;;;;;;;;;;-144.99;94.93;52317.66;5057462;28;20106;-70
2023/04/21 00:32:15;;;;;;;;;;;;;;;-144.99;95.20;52354.34;5051237;28;20405;-71
2023/04/21 00:34:41;;;;;;;;;;;;;;;-144.99;95.60;52366.56;5050168;28;19924;-71
2023/04/21 00:37:08;;;;;;;;;;;;;;;-144.99;95.62;52321.72;5050999;28;20001;-70
2023/04/21 00:39:34;;;;;;;;;;;;;;;-144.99;95.86;52329.88;5056445;28;20127;-70
2023/04/21 00:42:01;;;;;;;;;;;;;;;-144.99;96.38;52382.88;5049415;28;19982;-71
2023/04/21 00:44:27;;;;;;;;;;;;;;;-144.99;96.21;52362.50;5047904;28;19990;-72
2023/04/21 00:46:55;;;;;;;;;;;;;;;-144.99;96.28;52366.56;5047184;28;20310;-71
2023/04/21 00:49:24;;;;;;;;;;;;;;;-144.99;95.88;52378.78;5047396;28;20370;-70
2023/04/21 00:51:50;;;;;;;;;;;;;;;-144.99;95.30;52342.09;5047408;28;19925;-70
2023/04/21 00:54:17;;;;;;;;;;;;;;;-144.99;95.81;52364.53;5049999;28;20362;-71
2023/04/21 00:56:44;;;;;;;;;;;;;;;-144.99;95.08;52364.53;5047908;28;19928;-73
2023/04/21 00:59:10;;;;;;;;;;;;;;;-144.99;94.71;52354.34;5051116;28;20381;-72
2023/04/21 01:01:38;;;;;;;;;;;;;;;-144.99;95.40;52386.94;5058361;28;19929;-71
2023/04/21 01:04:09;;;;;;;;;;;;;;;-144.99;96.49;52401.22;5052987;28;19925;-73
2023/04/21 01:06:35;;;;;;;;;;;;;;;-144.99;95.84;52313.56;5047717;28;20415;-72
2023/04/21 01:09:03;;;;;;;;;;;;;;;-144.99;96.50;52382.88;5046979;28;19990;-72
2023/04/21 01:11:30;;;;;;;;;;;;;;;-144.99;96.05;52374.72;5048296;28;19933;-71
2023/04/21 01:13:56;;;;;;;;;;;;;;;-144.99;95.86;52338.03;5048226;28;19925;-72
2023/04/21 01:16:24;;;;;;;;;;;;;;;-144.99;96.78;52338.03;5049640;28;19929;-72
2023/04/21 01:18:50;;;;;;;;;;;;;;;-144.99;95.67;52338.03;5048253;28;19933;-72
2023/04/21 01:21:19;;;;;;;;;;;;;;;-144.99;95.84;52346.19;5050667;28;20337;-72
2023/04/21 01:23:46;;;;;;;;;;;;;;;-144.99;95.69;52325.81;5051239;28;19929;-72
2023/04/21 01:26:13;;;;;;;;;;;;;;;-144.99;95.15;52342.09;5060619;28;19936;-72
2023/04/21 01:28:40;;;;;;;;;;;;;;;-144.99;94.57;52321.72;5047171;28;19990;-71
2023/04/21 01:31:06;;;;;;;;;;;;;;;-144.99;94.54;52346.19;5054354;28;19974;-70
2023/04/21 01:33:33;;;;;;;;;;;;;;;-144.99;94.79;52321.72;5047026;28;19925;-68
2023/04/21 01:36:00;;;;;;;;;;;;;;;-144.99;94.85;52336.00;5056715;28;20004;-67
2023/04/21 01:38:27;;;;;;;;;;;;;;;-144.99;94.73;52325.81;5046937;28;20027;-70
2023/04/21 01:40:55;;;;;;;;;;;;;;;-144.99;94.72;52372.69;5048089;28;19925;-65
2023/04/21 01:43:24;;;;;;;;;;;;;;;-144.99;94.88;52329.88;5047364;28;19994;-67
2023/04/21 01:45:50;;;;;;;;;;;;;;;-144.99;94.87;52358.41;5048863;28;19940;-67
2023/04/21 01:48:17;;;;;;;;;;;;;;;-144.99;94.75;52358.41;5052171;28;19974;-67
2023/04/21 01:50:44;;;;;;;;;;;;;;;-144.99;94.94;52333.94;5051761;28;20461;-66
2023/04/21 01:53:10;;;;;;;;;;;;;;;-144.99;94.97;52346.19;5056084;28;20394;-65
2023/04/21 01:55:37;;;;;;;;;;;;;;;-144.99;95.00;52366.56;5062032;28;19975;-67
2023/04/21 01:58:05;;;;;;;;;;;;;;;-144.99;94.56;52358.41;5052037;28;19933;-64
2023/04/21 02:00:31;;;;;;;;;;;;;;;-144.99;94.50;52305.41;5049515;28;20382;-64
2023/04/21 02:02:58;;;;;;;;;;;;;;;-144.99;94.59;52344.16;5050525;28;19960;-65
2023/04/21 02:05:24;;;;;;;;;;;;;;;-144.99;94.72;52362.50;5062088;28;19933;-64
2023/04/21 02:07:51;;;;;;;;;;;;;;;-144.99;94.72;52378.78;5052270;28;20000;-64
2023/04/21 02:10:17;;;;;;;;;;;;;;;-144.99;95.01;52370.63;5068410;28;20357;-65
2023/04/21 02:12:44;;;;;;;;;;;;;;;-144.99;94.77;52352.28;5057810;28;19952;-66
2023/04/21 02:15:12;;;;;;;;;;;;;;;-144.99;94.85;52382.88;5053200;28;20172;-64
2023/04/21 02:17:39;;;;;;;;;;;;;;;-144.99;94.99;52362.50;5049112;28;20028;-72
2023/04/21 02:20:06;;;;;;;;;;;;;;;-144.99;94.75;52386.94;5060925;28;19925;-76
2023/04/21 02:22:33;;;;;;;;;;;;;;;-144.99;94.81;52342.09;5069695;28;19951;-77
2023/04/21 02:24:59;;;;;;;;;;;;;;;-144.99;95.57;52358.41;5057629;28;20274;-77
2023/04/21 02:27:26;;;;;;;;;;;;;;;-144.99;94.90;52370.63;5053051;28;19933;-73
2023/04/21 02:29:52;;;;;;;;;;;;;;;-144.99;95.33;52329.88;5052026;28;20006;-67
2023/04/21 02:32:20;;;;;;;;;;;;;;;-144.99;95.19;52350.25;5055188;28;20328;-68
2023/04/21 02:34:47;;;;;;;;;;;;;;;-144.99;95.13;52393.06;5052950;28;19944;-67
2023/04/21 02:37:16;;;;;;;;;;;;;;;-144.99;95.06;52348.22;5050985;28;19933;-68
2023/04/21 02:39:43;;;;;;;;;;;;;;;-144.99;94.83;52329.88;5049951;28;20031;-66
2023/04/21 02:42:10;;;;;;;;;;;;;;;-144.99;95.08;52366.56;5052174;28;20294;-67
2023/04/21 02:44:37;;;;;;;;;;;;;;;-144.99;95.20;52370.63;5062722;28;19951;-66
2023/04/21 02:47:04;;;;;;;;;;;;;;;-144.99;95.35;52395.09;5061096;28;19925;-66
2023/04/21 02:49:32;;;;;;;;;;;;;;;-144.99;95.13;52360.44;5050058;28;20026;-67
2023/04/21 02:51:58;;;;;;;;;;;;;;;-144.99;95.01;52366.56;5054425;28;20021;-67
2023/04/21 02:54:25;;;;;;;;;;;;;;;-144.99;95.02;52319.69;5054580;28;19928;-68
2023/04/21 02:56:51;;;;;;;;;;;;;;;-144.99;94.90;52374.72;5054554;28;19972;-68
2023/04/21 02:59:18;;;;;;;;;;;;;;;-144.99;94.83;52362.50;5050101;28;19952;-67
2023/04/21 03:01:45;;;;;;;;;;;;;;;-144.99;94.93;52362.50;5056767;28;19937;-67
2023/04/21 03:04:11;;;;;;;;;;;;;;;-144.99;95.01;52378.78;5050777;28;19964;-66
2023/04/21 03:06:39;;;;;;;;;;;;;;;-144.99;94.81;52366.56;5049881;28;19994;-66
2023/04/21 03:09:06;;;;;;;;;;;;;;;-144.99;94.48;52358.41;5049850;28;20394;-67
2023/04/21 03:11:32;;;;;;;;;;;;;;;-144.99;95.49;52362.50;5053235;28;19947;-67
2023/04/21 03:13:59;;;;;;;;;;;;;;;-144.99;95.06;52338.03;5052003;28;20451;-65
2023/04/21 03:16:26;;;;;;;;;;;;;;;-144.99;95.28;52370.63;5051954;28;20006;-67
2023/04/21 03:18:53;;;;;;;;;;;;;;;-144.99;95.39;52313.56;5058324;28;19925;-67
2023/04/21 03:21:19;;;;;;;;;;;;;;;-144.99;95.22;52395.09;5061485;28;20006;-68
2023/04/21 03:23:47;;;;;;;;;;;;;;;-144.99;95.08;52354.34;5051589;28;20294;-69
2023/04/21 03:26:15;;;;;;;;;;;;;;;-144.99;95.25;52325.81;5052266;28;19964;-68
2023/04/21 03:28:41;;;;;;;;;;;;;;;-144.99;95.18;52333.94;5048837;28;19956;-69
2023/04/21 03:31:08;;;;;;;;;;;;;;;-144.99;95.11;52338.03;5055988;28;20329;-67
2023/04/21 03:33:34;;;;;;;;;;;;;;;-144.99;95.08;52352.28;5051817;28;19937;-66
2023/04/21 03:36:01;;;;;;;;;;;;;;;-144.99;94.90;52378.78;5055096;28;20840;-66
2023/04/21 03:38:28;;;;;;;;;;;;;;;-144.99;95.24;52393.06;5052915;28;20394;-66
2023/04/21 03:40:56;;;;;;;;;;;;;;;-144.99;94.99;52356.38;5055029;28;19976;-70
2023/04/21 03:43:23;;;;;;;;;;;;;;;-144.99;94.79;52346.19;5048895;28;19990;-70
2023/04/21 03:45:49;;;;;;;;;;;;;;;-144.99;95.10;52329.88;5053459;28;19929;-70
2023/04/21 03:48:16;;;;;;;;;;;;;;;-144.99;95.25;52344.16;5049006;28;19929;-70
2023/04/21 03:50:42;;;;;;;;;;;;;;;-144.99;95.11;52325.81;5049185;28;19940;-70
2023/04/21 03:53:09;;;;;;;;;;;;;;;-144.99;94.82;52378.78;5061621;28;19925;-70
2023/04/21 03:55:36;;;;;;;;;;;;;;;-144.99;95.27;52342.09;5062117;28;19925;-68
2023/04/21 03:58:04;;;;;;;;;;;;;;;-144.99;95.04;52374.72;5057744;28;20416;-67
2023/04/21 04:00:30;;;;;;;;;;;;;;;-144.99;94.84;52354.34;5053512;28;19933;-67
2023/04/21 04:02:57;;;;;;;;;;;;;;;-144.99;94.72;52356.38;5048662;28;20002;-67
2023/04/21 04:05:23;;;;;;;;;;;;;;;-144.99;94.74;52399.19;5056124;28;19933;-67
2023/04/21 04:07:50;;;;;;;;;;;;;;;-144.99;94.57;52370.63;5051595;28;19983;-67
2023/04/21 04:10:16;;;;;;;;;;;;;;;-144.99;94.69;52333.94;5053341;28;20338;-71
2023/04/21 04:12:43;;;;;;;;;;;;;;;-144.99;94.64;52352.28;5068892;28;19924;-71
2023/04/21 04:15:11;;;;;;;;;;;;;;;-144.99;94.62;52346.19;5059285;28;19924;-71
2023/04/21 04:17:37;;;;;;;;;;;;;;;-144.99;94.67;52350.25;5062847;28;19925;-71
2023/04/21 04:20:06;;;;;;;;;;;;;;;-144.99;94.27;52382.88;5048690;28;20374;-71
2023/04/21 04:22:33;;;;;;;;;;;;;;;-144.99;94.30;52350.25;5051836;28;19931;-71
2023/04/21 04:25:00;;;;;;;;;;;;;;;-144.99;94.62;52354.34;5056328;28;20400;-71
2023/04/21 04:27:27;;;;;;;;;;;;;;;-144.99;94.58;52370.63;5047851;28;19931;-66
2023/04/21 04:29:53;;;;;;;;;;;;;;;-144.99;94.96;52354.34;5049843;28;19925;-66
2023/04/21 04:32:21;;;;;;;;;;;;;;;-144.99;94.97;52340.06;5060531;28;19929;-66
2023/04/21 04:34:48;;;;;;;;;;;;;;;-144.99;95.04;52350.25;5054271;28;19932;-66
2023/04/21 04:37:15;;;;;;;;;;;;;;;-144.99;94.79;52364.53;5059580;28;19925;-66
2023/04/21 04:39:41;;;;;;;;;;;;;;;-144.99;94.39;52346.19;5050997;28;19933;-66
2023/04/21 04:42:08;;;;;;;;;;;;;;;-144.99;94.25;52329.88;5048476;28;19937;-66
2023/04/21 04:44:35;;;;;;;;;;;;;;;-144.99;94.22;52317.66;5054319;28;20403;-66
2023/04/21 04:47:02;;;;;;;;;;;;;;;-144.99;93.96;52350.25;5054797;28;19948;-65
2023/04/21 04:49:30;;;;;;;;;;;;;;;-144.99;93.76;52382.88;5064170;28;19933;-69
2023/04/21 04:51:57;;;;;;;;;;;;;;;-144.99;93.86;52323.75;5052161;28;19925;-69
2023/04/21 04:54:24;;;;;;;;;;;;;;;-144.99;93.63;52338.03;5055072;28;19928;-68
2023/04/21 04:56:50;;;;;;;;;;;;;;;-144.99;93.26;52352.28;5058436;28;19968;-68
2023/04/21 04:59:17;;;;;;;;;;;;;;;-144.99;92.87;52346.19;5051385;28;20306;-65
2023/04/21 05:01:43;;;;;;;;;;;;;;;-144.99;92.51;52342.09;5050562;28;19982;-65
2023/04/21 05:04:10;;;;;;;;;;;;;;;-144.99;92.11;52305.41;5053323;28;20010;-65
2023/04/21 05:06:37;;;;;;;;;;;;;;;-144.99;91.47;52338.03;5056643;28;20401;-65
2023/04/21 05:09:04;;;;;;;;;;;;;;;-144.99;91.46;52329.88;5054466;28;19924;-65
2023/04/21 05:11:31;;;;;;;;;;;;;;;-144.99;91.33;52358.41;5051685;28;19929;-65
2023/04/21 05:13:57;;;;;;;;;;;;;;;-144.99;90.69;52313.56;5047616;28;19924;-65
2023/04/21 05:16:24;;;;;;;;;;;;;;;-144.99;90.30;52342.09;5046772;28;20044;-65
2023/04/21 05:18:52;;;;;;;;;;;;;;;-144.99;90.46;52309.50;5060634;28;19939;-66
2023/04/21 05:21:22;;;;;;;;;;;;;;;-144.99;89.81;52331.91;5056296;28;19925;-66
2023/04/21 05:24:01;;;;;;;;;;;;;;;-144.99;89.51;52331.91;4737313;28;9999937;-66
2023/04/21 05:26:28;;;;;;;;;;;;;;;-144.99;89.53;52338.03;5058855;28;20048;-66
2023/04/21 05:28:55;;;;;;;;;;;;;;;-144.99;88.83;52338.03;5054850;28;19933;-66
2023/04/21 05:31:21;;;;;;;;;;;;;;;-144.99;88.53;52305.41;5058313;28;19940;-66
2023/04/21 05:33:48;;;;;;;;;;;;;;;-144.99;88.29;52340.06;5060536;28;19986;-67
2023/04/21 05:36:14;;;;;;;;;;;;;;;-144.99;88.00;52346.19;5048089;28;20107;-66
2023/04/21 05:38:41;;;;;;;;;;;;;;;-144.99;87.81;52346.19;5048519;28;19929;-66
2023/04/21 05:41:09;;;;;;;;;;;;;;;-144.99;87.55;52370.63;5050687;28;19925;-66
2023/04/21 05:43:35;;;;;;;;;;;;;;;-144.99;87.00;52329.88;5049270;28;19925;-67
2023/04/21 05:46:02;;;;;;;;;;;;;;;-144.99;88.39;52325.81;5050977;28;19936;-66
2023/04/21 05:48:28;;;;;;;;;;;;;;;-144.99;89.23;52362.50;5060192;28;19985;-67
2023/04/21 05:50:55;;;;;;;;;;;;;;;-144.99;89.56;52329.88;5049842;28;20028;-66
2023/04/21 05:53:22;;;;;;;;;;;;;;;-144.99;89.29;52309.50;5057583;28;20456;-66
2023/04/21 05:55:49;;;;;;;;;;;;;;;-144.99;89.33;52321.72;5049830;28;19929;-66
2023/04/21 05:58:17;;;;;;;;;;;;;;;-144.99;86.26;52309.50;5048268;28;20328;-66
2023/04/21 06:00:45;;;;;;;;;;;;;;;-144.99;85.09;52313.56;5054084;28;19932;-66
2023/04/21 06:03:11;;;;;;;;;;;;;;;-144.99;84.96;52340.06;5054915;28;19932;-67
2023/04/21 06:05:38;;;;;;;;;;;;;;;-144.99;84.66;52293.19;5058707;28;20002;-66
2023/04/21 06:08:04;;;;;;;;;;;;;;;-144.99;83.85;52313.56;5047838;28;19979;-67
2023/04/21 06:10:31;;;;;;;;;;;;;;;-144.99;83.32;52329.88;5047234;28;19990;-66
2023/04/21 06:12:57;;;;;;;;;;;;;;;-144.99;83.12;52280.97;5060725;28;20525;-66
2023/04/21 06:15:25;;;;;;;;;;;;;;;-144.99;83.24;52329.88;5047884;28;19981;-67
2023/04/21 06:17:53;;;;;;;;;;;;;;;-144.99;82.85;52336.00;5054030;28;19937;-66
2023/04/21 06:20:19;;;;;;;;;;;;;;;-144.99;82.26;52319.69;5051531;28;19925;-66
2023/04/21 06:22:46;;;;;;;;;;;;;;;-144.99;82.06;52313.56;5058217;28;20393;-67
2023/04/21 06:25:12;;;;;;;;;;;;;;;-144.99;83.61;52313.56;5054075;28;20073;-67
2023/04/21 06:27:39;;;;;;;;;;;;;;;-144.99;82.95;52280.97;5048971;28;20022;-67
2023/04/21 06:30:06;;;;;;;;;;;;;;;-144.99;83.01;52329.88;5047317;28;20359;-67
2023/04/21 06:32:34;;;;;;;;;;;;;;;-144.99;81.20;52293.19;5056490;28;20381;-66
2023/04/21 06:35:01;;;;;;;;;;;;;;;-144.99;80.38;52321.72;5047486;28;19939;-67
2023/04/21 06:37:27;;;;;;;;;;;;;;;-144.99;80.04;52340.06;5047308;28;20025;-66
2023/04/21 06:39:54;;;;;;;;;;;;;;;-144.99;79.66;52321.72;5046984;28;19975;-67
2023/04/21 06:42:21;;;;;;;;;;;;;;;-144.99;78.99;52305.41;5058356;28;19984;-67
2023/04/21 06:44:47;;;;;;;;;;;;;;;-144.99;78.83;52303.38;5052972;28;20022;-67
2023/04/21 06:47:15;;;;;;;;;;;;;;;-144.99;78.67;52301.34;5049441;28;19933;-67
2023/04/21 06:49:43;;;;;;;;;;;;;;;-144.99;78.43;52291.16;5049063;28;19982;-67
2023/04/21 06:52:10;;;;;;;;;;;;;;;-144.99;78.47;52285.03;5057192;28;19978;-67
2023/04/21 06:54:37;;;;;;;;;;;;;;;-144.99;78.05;52297.25;4714662;28;10000422;-68
2023/04/21 06:57:03;;;;;;;;;;;;;;;-144.99;77.92;52301.34;5047167;28;20366;-67
2023/04/21 06:59:30;;;;;;;;;;;;;;;-144.99;77.77;52297.25;5046410;28;20017;-65
2023/04/21 07:01:56;;;;;;;;;;;;;;;-144.99;77.78;52297.25;5046039;28;19978;-67
2023/04/21 07:04:23;;;;;;;;;;;;;;;-144.99;77.55;52333.94;5046937;28;19929;-67
2023/04/21 07:06:51;;;;;;;;;;;;;;;-144.99;76.81;52293.19;5050990;28;19935;-68
2023/04/21 07:09:17;;;;;;;;;;;;;;;-144.99;76.15;52217.78;5055903;28;20409;-67
2023/04/21 07:11:44;;;;;;;;;;;;;;;-144.99;75.78;52317.66;5050265;28;20020;-68
2023/04/21 07:14:10;;;;;;;;;;;;;;;-144.99;75.30;52289.13;5046923;28;20297;-67
2023/04/21 07:16:37;;;;;;;;;;;;;;;-144.99;75.07;52256.50;5057296;28;19929;-67
2023/04/21 07:19:03;;;;;;;;;;;;;;;-144.99;75.09;52232.03;5047355;28;20348;-67
2023/04/21 07:21:34;;;;;;;;;;;;;;;-144.99;74.75;52293.19;5059263;28;19925;-68
2023/04/21 07:24:03;;;;;;;;;;;;;;;-144.99;74.44;52295.22;5056096;28;19928;-68
2023/04/21 07:26:29;;;;;;;;;;;;;;;-144.99;74.42;52260.56;5049584;28;20243;-67
2023/04/21 07:28:57;;;;;;;;;;;;;;;-144.99;75.16;52329.88;5061570;28;19971;-67
2023/04/21 07:31:23;;;;;;;;;;;;;;;-144.99;74.69;52252.44;5053658;28;19932;-67
2023/04/21 07:33:50;;;;;;;;;;;;;;;-144.99;74.80;52299.31;5053516;28;20088;-67
2023/04/21 07:36:17;;;;;;;;;;;;;;;-144.99;74.67;52289.13;5053037;28;19955;-69
2023/04/21 07:38:44;;;;;;;;;;;;;;;-144.99;74.58;52268.72;5046572;28;20388;-67
2023/04/21 07:41:12;;;;;;;;;;;;;;;-144.99;74.44;52276.88;5045440;28;19929;-67
2023/04/21 07:43:38;;;;;;;;;;;;;;;-144.99;73.86;52272.81;5045843;28;20304;-67
2023/04/21 07:46:05;;;;;;;;;;;;;;;-144.99;74.44;52268.72;5054496;28;20398;-67
2023/04/21 07:48:32;;;;;;;;;;;;;;;-144.99;74.04;52287.06;5046327;28;20203;-68
2023/04/21 07:50:59;;;;;;;;;;;;;;;-144.99;74.78;52295.22;5046118;28;19929;-67
2023/04/21 07:53:25;;;;;;;;;;;;;;;-144.99;73.16;52248.34;5048930;28;19932;-68
2023/04/21 07:55:52;;;;;;;;;;;;;;;-144.99;72.54;52252.44;5047988;28;19960;-68
2023/04/21 07:58:20;;;;;;;;;;;;;;;-144.99;72.61;52248.34;5046169;28;19972;-68
2023/04/21 08:00:46;;;;;;;;;;;;;;;-144.99;72.08;52227.97;5048965;28;19932;-67
2023/04/21 08:03:13;;;;;;;;;;;;;;;-144.99;71.66;52244.28;5056144;28;19936;-68
2023/04/21 08:05:39;;;;;;;;;;;;;;;-144.99;71.60;52227.97;5049819;28;20332;-68
2023/04/21 08:08:06;;;;;;;;;;;;;;;-144.99;71.48;52256.50;5054248;28;19933;-68
2023/04/21 08:10:32;;;;;;;;;;;;;;;-144.99;70.39;52232.03;5050804;28;19936;-68
2023/04/21 08:12:59;;;;;;;;;;;;;;;-144.99;70.79;52240.19;5054343;28;19928;-68
2023/04/21 08:15:27;;;;;;;;;;;;;;;-144.99;70.30;52248.34;5057291;28;19933;-68
2023/04/21 08:17:54;;;;;;;;;;;;;;;-144.99;71.23;52293.19;5046738;28;20438;-69
2023/04/21 08:20:20;;;;;;;;;;;;;;;-144.99;70.44;52183.13;5050559;28;19932;-67
2023/04/21 08:22:47;;;;;;;;;;;;;;;-144.99;70.55;52236.13;5052332;28;19932;-67
2023/04/21 08:25:13;;;;;;;;;;;;;;;-144.99;70.50;52183.13;5053025;28;19982;-68
2023/04/21 08:27:40;;;;;;;;;;;;;;;-144.99;69.74;52238.16;5046793;28;19929;-70
2023/04/21 08:30:07;;;;;;;;;;;;;;;-144.99;70.06;52217.78;5054504;28;19935;-69
2023/04/21 08:32:35;;;;;;;;;;;;;;;-144.99;69.80;52234.09;5048994;28;19925;-69
2023/04/21 08:35:02;;;;;;;;;;;;;;;-144.99;69.81;52203.50;5046876;28;19933;-69
2023/04/21 08:37:29;;;;;;;;;;;;;;;-144.99;69.71;52248.34;5049339;28;19928;-69
2023/04/21 08:39:55;;;;;;;;;;;;;;;-144.99;69.28;52268.72;5053833;28;19960;-70
2023/04/21 08:42:22;;;;;;;;;;;;;;;-144.99;69.29;52219.81;5053937;28;19940;-70
2023/04/21 08:44:48;;;;;;;;;;;;;;;-144.99;70.03;52217.78;5049021;28;19929;-70
2023/04/21 08:47:15;;;;;;;;;;;;;;;-144.99;70.70;52232.03;5048623;28;20307;-69
2023/04/21 08:49:44;;;;;;;;;;;;;;;-144.99;70.32;52219.81;5046652;28;19929;-70
2023/04/21 08:52:12;;;;;;;;;;;;;;;-144.99;70.07;52236.13;5049882;28;19932;-68
2023/04/21 08:54:38;;;;;;;;;;;;;;;-144.99;69.61;52225.94;5063954;28;20023;-68
2023/04/21 08:57:05;;;;;;;;;;;;;;;-144.99;68.13;52199.44;5045092;28;19979;-68
2023/04/21 08:59:31;;;;;;;;;;;;;;;-144.99;67.66;52162.75;5045332;28;20019;-68
2023/04/21 09:02:08;;;;;;;;;;;;;;;-144.99;67.66;52174.97;5048189;28;19932;-69
2023/04/21 09:04:35;;;;;;;;;;;;;;;-144.99;67.36;52170.91;5052128;28;19935;-69
2023/04/21 09:07:03;;;;;;;;;;;;;;;-144.99;66.73;52183.13;5045550;28;19933;-69
2023/04/21 09:09:30;;;;;;;;;;;;;;;-144.99;66.64;52172.94;5045777;28;20418;-69
2023/04/21 09:11:57;;;;;;;;;;;;;;;-144.99;66.36;52183.13;5046798;28;19982;-69
2023/04/21 09:14:28;;;;;;;;;;;;;;;-144.99;66.30;52207.59;5046477;28;19929;-69
2023/04/21 09:16:59;;;;;;;;;;;;;;;-144.99;66.37;52183.13;5045117;28;20021;-69
2023/04/21 09:19:26;;;;;;;;;;;;;;;-144.99;65.73;52132.19;5053885;28;19956;-70
2023/04/21 09:21:53;;;;;;;;;;;;;;;-144.99;65.18;52183.13;5058511;28;19964;-69
2023/04/21 09:24:21;;;;;;;;;;;;;;;-144.99;64.82;52193.31;5059065;28;20390;-69
2023/04/21 09:26:50;;;;;;;;;;;;;;;-144.99;65.60;52170.91;5055954;28;20329;-69
2023/04/21 09:29:17;;;;;;;;;;;;;;;-144.99;65.19;52142.38;5048410;28;19939;-69
2023/04/21 09:31:44;;;;;;;;;;;;;;;-144.99;65.04;52170.91;5047603;28;19995;-69
2023/04/21 09:34:17;;;;;;;;;;;;;;;-144.99;64.62;52177.00;5047149;28;20023;-69
2023/04/21 09:36:45;;;;;;;;;;;;;;;-144.99;64.51;52183.13;5060762;28;20095;-70
2023/04/21 09:39:11;;;;;;;;;;;;;;;-144.99;64.11;52156.63;5050763;28;20004;-69
2023/04/21 09:41:39;;;;;;;;;;;;;;;-144.99;63.89;52130.13;5048621;28;19983;-69
2023/04/21 09:44:06;;;;;;;;;;;;;;;-144.99;63.65;52162.75;5056888;28;20367;-69
2023/04/21 09:46:33;;;;;;;;;;;;;;;-144.99;63.53;52179.06;5051704;28;19935;-69
2023/04/21 09:49:00;;;;;;;;;;;;;;;-144.99;63.35;52191.28;5051638;28;19932;-69
2023/04/21 09:51:27;;;;;;;;;;;;;;;-144.99;62.87;52183.13;5053156;28;19932;-67
2023/04/21 09:53:58;;;;;;;;;;;;;;;-144.99;62.57;52158.66;5061930;28;20251;-70
2023/04/21 09:56:25;;;;;;;;;;;;;;;-144.99;62.33;52162.75;5056451;28;19989;-70
2023/04/21 09:58:53;;;;;;;;;;;;;;;-144.99;63.06;52134.22;5048050;28;19935;-69
2023/04/21 10:01:20;;;;;;;;;;;;;;;-144.99;62.92;52126.06;5047189;28;19935;-69
2023/04/21 10:03:48;;;;;;;;;;;;;;;-144.99;63.10;52134.22;5055020;28;19994;-69
2023/04/21 10:06:14;;;;;;;;;;;;;;;-144.99;63.05;52119.94;5053253;28;20008;-69
2023/04/21 10:08:44;;;;;;;;;;;;;;;-144.99;62.33;52126.06;5052093;28;19928;-69
2023/04/21 10:11:11;;;;;;;;;;;;;;;-144.99;62.06;52113.84;5049834;28;19929;-69
2023/04/21 10:13:38;;;;;;;;;;;;;;;-144.99;62.11;52130.13;5050180;28;19932;-69
2023/04/21 10:16:07;;;;;;;;;;;;;;;-144.99;62.01;52081.22;5049670;28;19929;-70
2023/04/21 10:18:35;;;;;;;;;;;;;;;-144.99;62.08;52113.84;5048657;28;20032;-70
2023/04/21 10:21:03;;;;;;;;;;;;;;;-144.99;62.26;52105.69;5058377;28;19957;-70
2023/04/21 10:23:30;;;;;;;;;;;;;;;-144.99;61.25;52115.88;5065718;28;19932;-70
2023/04/21 10:26:09;;;;;;;;;;;;;;;-144.99;61.34;52105.69;5050119;28;20305;-70
2023/04/21 10:28:42;;;;;;;;;;;;;;;-144.99;60.54;52089.38;5053005;28;19928;-70
2023/04/21 10:31:28;;;;;;;;;;;;;;;-144.99;61.67;52101.59;5052930;28;19932;-70
2023/04/21 10:34:09;;;;;;;;;;;;;;;-144.99;61.09;52105.69;5050078;28;19931;-70
2023/04/21 10:36:42;;;;;;;;;;;;;;;-144.99;60.81;52077.16;5061432;28;20403;-70
2023/04/21 10:39:11;;;;;;;;;;;;;;;-144.99;60.03;52073.06;5048938;28;20459;-69
2023/04/21 10:41:38;;;;;;;;;;;;;;;-144.99;60.91;52052.69;5052473;28;20409;-70
2023/04/21 10:44:11;;;;;;;;;;;;;;;-144.99;59.38;52058.81;5048364;28;20360;-70
2023/04/21 10:46:39;;;;;;;;;;;;;;;-144.99;59.65;52044.53;5052998;28;20560;-70
2023/04/21 10:49:06;;;;;;;;;;;;;;;-144.99;59.20;52016.00;5055736;28;20099;-70
2023/04/21 10:51:33;;;;;;;;;;;;;;;-144.99;59.08;52011.94;5047709;28;19928;-69
2023/04/21 10:54:04;;;;;;;;;;;;;;;-144.99;59.22;52024.16;5058075;28;20378;-71
2023/04/21 10:56:31;;;;;;;;;;;;;;;-144.99;59.04;52003.78;5052359;28;20055;-71
2023/04/21 10:58:59;;;;;;;;;;;;;;;-144.99;58.85;51963.03;5049628;28;19944;-71
2023/04/21 11:01:25;;;;;;;;;;;;;;;-144.99;58.01;52003.78;5054799;28;20417;-69
2023/04/21 11:03:53;;;;;;;;;;;;;;;-144.99;57.58;52007.84;5068265;28;19928;-70
2023/04/21 11:06:19;;;;;;;;;;;;;;;-144.99;58.24;52003.78;5069475;28;19986;-69
2023/04/21 11:08:55;;;;;;;;;;;;;;;-144.99;58.54;51975.25;5051021;28;19928;-70
2023/04/21 11:11:23;;;;;;;;;;;;;;;-144.99;57.95;51979.31;5047480;28;20050;-69
2023/04/21 11:13:52;;;;;;;;;;;;;;;-144.99;57.79;51983.41;5055708;28;20034;-71
2023/04/21 11:16:20;;;;;;;;;;;;;;;-144.99;57.77;51954.88;5046513;28;19928;-71
2023/04/21 11:18:46;;;;;;;;;;;;;;;-144.99;57.64;51971.16;5048029;28;19928;-71
2023/04/21 11:21:16;;;;;;;;;;;;;;;-144.99;57.70;51963.03;5061781;28;19932;-71
2023/04/21 11:23:53;;;;;;;;;;;;;;;-144.99;57.74;51958.94;5056770;28;20074;-71
2023/04/21 11:26:29;;;;;;;;;;;;;;;-144.99;58.75;51983.41;5054357;28;19929;-71
2023/04/21 11:28:59;;;;;;;;;;;;;;;-144.99;58.03;52005.81;5049193;28;20193;-71
2023/04/21 11:31:28;;;;;;;;;;;;;;;-144.99;58.34;52001.75;5051696;28;19929;-69
2023/04/21 11:33:55;;;;;;;;;;;;;;;-144.99;57.60;51942.63;5046440;28;19986;-69
2023/04/21 11:36:22;;;;;;;;;;;;;;;-144.99;56.92;52020.09;5058198;28;19982;-70
2023/04/21 11:38:49;;;;;;;;;;;;;;;-144.99;57.00;51973.22;5050964;28;20012;-69
2023/04/21 11:41:21;;;;;;;;;;;;;;;-144.99;56.65;51950.78;5046317;28;20008;-69
2023/04/21 11:43:47;;;;;;;;;;;;;;;-144.99;57.08;51985.44;5047805;28;19932;-69
2023/04/21 11:46:18;;;;;;;;;;;;;;;-144.99;56.83;51995.63;5061464;28;19929;-70
2023/04/21 11:48:45;;;;;;;;;;;;;;;-144.99;56.86;51965.06;5066035;28;19936;-70
2023/04/21 11:51:15;;;;;;;;;;;;;;;-144.99;57.20;51979.31;5049307;28;20330;-70
2023/04/21 11:53:42;;;;;;;;;;;;;;;-144.99;57.13;51983.41;5052068;28;19940;-70
2023/04/21 11:56:09;;;;;;;;;;;;;;;-144.99;57.10;51999.69;5045838;28;20366;-70
2023/04/21 11:58:36;;;;;;;;;;;;;;;-144.99;57.46;51977.28;5048062;28;19924;-70
2023/04/21 12:01:07;;;;;;;;;;;;;;;-144.99;57.50;52007.84;5046728;28;19975;-69
2023/04/21 12:03:35;;;;;;;;;;;;;;;-144.99;57.27;51997.66;5058220;28;20373;-70
2023/04/21 12:06:01;;;;;;;;;;;;;;;-144.99;58.18;51979.31;5048881;28;19986;-70
2023/04/21 12:08:29;;;;;;;;;;;;;;;-144.99;57.96;52016.00;5052592;28;19952;-70
2023/04/21 12:10:55;;;;;;;;;;;;;;;-144.99;57.89;51995.63;5048754;28;19928;-70
2023/04/21 12:13:22;;;;;;;;;;;;;;;-144.99;57.35;51975.25;5048646;28;19929;-70
2023/04/21 12:15:49;;;;;;;;;;;;;;;-144.99;57.20;51999.69;5046198;28;20160;-70
2023/04/21 12:18:16;;;;;;;;;;;;;;;-144.99;56.63;51954.88;5054913;28;19939;-70
2023/04/21 12:20:50;;;;;;;;;;;;;;;-144.99;56.87;51969.13;5055842;28;19931;-72
2023/04/21 12:23:17;;;;;;;;;;;;;;;-144.99;56.97;51975.25;5061703;28;20179;-70
2023/04/21 12:25:44;;;;;;;;;;;;;;;-144.99;57.10;51991.56;5062044;28;19932;-70